createdAt,value
2019-05-11T00:04:34.512Z,74.00
2019-05-11T00:10:00.377Z,73.90
2019-05-11T00:15:31.599Z,74.10
2019-05-11T00:21:02.277Z,74.30
2019-05-11T00:26:31.762Z,74.80
2019-05-11T00:34:52.538Z,73.90
2019-05-11T00:40:18.570Z,74.20
2019-05-11T00:43:01.402Z,74.40
2019-05-11T00:45:46.047Z,74.70
2019-05-11T00:51:13.526Z,75.20
2019-05-11T00:56:44.783Z,75.80
2019-05-11T01:02:11.570Z,76.70
2019-05-11T01:04:53.497Z,77.00
2019-05-11T01:07:34.779Z,77.00
2019-05-11T01:13:02.326Z,77.50
2019-05-11T01:18:33.485Z,77.80
2019-05-11T01:24:03.171Z,77.70
2019-05-11T01:29:30.513Z,77.60
2019-05-11T01:37:55.631Z,77.60
2019-05-11T01:43:20.177Z,77.60
2019-05-11T01:48:45.479Z,77.50
2019-05-11T01:51:16.699Z,77.10
2019-05-11T01:54:07.922Z,77.10
2019-05-11T01:56:57.320Z,76.80
2019-05-11T02:00:05.963Z,76.70
2019-05-11T02:02:55.150Z,76.50
2019-05-11T02:06:03.090Z,76.40
2019-05-11T02:08:58.452Z,76.60
2019-05-11T02:12:06.236Z,76.50
2019-05-11T02:14:55.292Z,76.50
2019-05-11T02:17:45.576Z,76.60
2019-05-11T02:20:17.885Z,76.80
2019-05-11T02:23:06.801Z,77.10
2019-05-11T02:28:22.847Z,77.40
2019-05-11T02:31:13.972Z,77.30
2019-05-11T02:34:04.831Z,77.40
2019-05-11T02:37:13.542Z,77.40
2019-05-11T02:47:02.865Z,77.60
2019-05-11T02:50:11.166Z,77.80
2019-05-11T02:53:00.466Z,77.80
2019-05-11T02:56:11.585Z,77.80
2019-05-11T02:59:04.548Z,77.90
2019-05-11T03:04:46.892Z,78.90
2019-05-11T03:07:56.562Z,78.00
2019-05-11T03:10:47.280Z,78.10
2019-05-11T03:13:37.654Z,78.10
2019-05-11T03:16:27.328Z,78.10
2019-05-11T03:22:50.812Z,78.20
2019-05-11T03:25:46.609Z,78.30
2019-05-11T03:31:55.640Z,78.50
2019-05-11T03:37:16.779Z,78.60
2019-05-11T03:42:44.194Z,78.60
2019-05-11T03:45:29.003Z,78.60
2019-05-11T03:48:11.203Z,78.60
2019-05-11T03:53:44.603Z,78.50
2019-05-11T03:59:15.486Z,78.70
2019-05-11T04:05:07.487Z,78.90
2019-05-11T04:10:25.423Z,78.90
2019-05-11T04:13:13.010Z,79.00
2019-05-11T04:15:57.860Z,79.00
2019-05-11T04:21:27.055Z,79.10
2019-05-11T04:24:28.658Z,79.10
2019-05-11T04:27:49.204Z,79.20
2019-05-11T04:37:21.196Z,79.10
2019-05-11T04:40:31.992Z,79.10
2019-05-11T04:43:22.429Z,79.50
2019-05-11T04:46:38.120Z,78.60
2019-05-11T04:53:27.984Z,78.50
2019-05-11T04:59:50.904Z,79.00
2019-05-11T05:03:03.675Z,79.80
2019-05-11T05:05:56.352Z,79.70
2019-05-11T05:08:58.163Z,80.10
2019-05-11T05:12:13.963Z,80.20
2019-05-11T05:15:01.796Z,80.20
2019-05-11T05:17:51.956Z,80.10
2019-05-11T05:20:43.780Z,80.40
2019-05-11T05:23:53.426Z,81.10
2019-05-11T05:29:58.131Z,81.90
2019-05-11T05:34:56.528Z,82.20
2019-05-11T05:40:35.416Z,81.80
2019-05-11T05:43:28.521Z,81.60
2019-05-11T05:46:22.893Z,81.30
2019-05-11T05:49:12.847Z,80.70
2019-05-11T05:52:06.223Z,80.10
2019-05-11T05:55:04.439Z,79.70
2019-05-11T05:57:55.567Z,79.20
2019-05-11T06:00:45.090Z,78.70
2019-05-11T06:03:35.277Z,78.90
2019-05-11T06:06:06.977Z,78.80
2019-05-11T06:09:21.039Z,78.70
2019-05-11T06:12:10.780Z,78.80
2019-05-11T06:15:00.604Z,78.20
2019-05-11T06:17:51.160Z,78.50
2019-05-11T06:21:00.282Z,78.90
2019-05-11T06:23:49.343Z,78.60
2019-05-11T06:26:20.142Z,78.30
2019-05-11T06:29:10.146Z,77.60
2019-05-11T06:31:52.509Z,78.30
2019-05-11T06:37:08.017Z,75.10
2019-05-11T06:39:57.985Z,74.10
2019-05-11T06:42:28.216Z,72.00
2019-05-11T06:44:59.754Z,71.90
2019-05-11T06:47:49.064Z,71.80
2019-05-11T06:50:39.019Z,71.10
2019-05-11T06:53:09.268Z,70.00
2019-05-11T06:55:58.685Z,68.60
2019-05-11T06:58:31.063Z,68.90
2019-05-11T07:01:01.223Z,69.90
2019-05-11T07:03:31.429Z,68.30
2019-05-11T07:06:20.613Z,67.80
2019-05-11T07:08:50.686Z,65.40
2019-05-11T07:11:20.996Z,65.60
2019-05-11T07:14:20.439Z,65.70
2019-05-11T07:17:04.396Z,64.30
2019-05-11T07:20:12.784Z,65.50
2019-05-11T07:22:43.712Z,66.50
2019-05-11T07:25:13.795Z,64.50
2019-05-11T07:28:03.936Z,64.20
2019-05-11T07:30:33.961Z,62.90
2019-05-11T07:33:23.291Z,64.90
2019-05-11T07:36:12.643Z,62.50
2019-05-11T07:38:43.203Z,63.10
2019-05-11T07:41:13.573Z,62.40
2019-05-11T07:43:45.295Z,63.20
2019-05-11T07:46:17.611Z,63.60
2019-05-11T07:48:47.930Z,62.10
2019-05-11T07:51:39.079Z,62.50
2019-05-11T07:57:04.694Z,60.90
2019-05-11T07:59:53.793Z,60.90
2019-05-11T08:02:43.874Z,59.10
2019-05-11T08:05:13.994Z,58.90
2019-05-11T08:08:04.668Z,59.20
2019-05-11T08:10:35.799Z,59.30
2019-05-11T08:13:06.086Z,59.00
2019-05-11T08:15:38.236Z,61.20
2019-05-11T08:18:08.989Z,62.30
2019-05-11T08:20:39.415Z,59.40
2019-05-11T08:23:09.740Z,59.80
2019-05-11T08:25:41.919Z,58.90
2019-05-11T08:28:51.272Z,59.00
2019-05-11T08:31:22.007Z,58.20
2019-05-11T08:34:22.873Z,59.20
2019-05-11T08:37:12.753Z,59.60
2019-05-11T08:39:47.638Z,58.50
2019-05-11T08:42:18.090Z,59.10
2019-05-11T08:44:48.434Z,58.80
2019-05-11T08:47:23.177Z,58.50
2019-05-11T08:50:15.413Z,58.70
2019-05-11T08:52:47.862Z,59.30
2019-05-11T08:55:18.966Z,59.00
2019-05-11T08:58:09.219Z,59.00
2019-05-11T09:00:59.376Z,58.30
2019-05-11T09:03:29.976Z,58.50
2019-05-11T09:06:19.466Z,58.80
2019-05-11T09:08:50.328Z,58.40
2019-05-11T09:11:20.286Z,57.80
2019-05-11T09:13:51.722Z,58.10
2019-05-11T09:16:21.691Z,58.50
2019-05-11T09:18:52.128Z,58.20
2019-05-11T09:21:23.162Z,57.90
2019-05-11T09:23:53.464Z,57.80
2019-05-11T09:26:43.454Z,58.00
2019-05-11T09:29:32.382Z,57.80
2019-05-11T09:32:02.976Z,58.60
2019-05-11T09:34:33.857Z,55.70
2019-05-11T09:37:04.456Z,56.10
2019-05-11T09:39:54.622Z,55.80
2019-05-11T09:42:24.739Z,55.60
2019-05-11T09:44:58.531Z,55.70
2019-05-11T09:47:28.917Z,53.90
2019-05-11T09:49:59.078Z,52.30
2019-05-11T09:52:33.788Z,53.30
2019-05-11T09:55:48.219Z,53.30
2019-05-11T09:58:19.666Z,50.70
2019-05-11T10:00:58.433Z,48.80
2019-05-11T10:03:52.730Z,49.60
2019-05-11T10:06:24.487Z,49.20
2019-05-11T10:08:58.088Z,49.00
2019-05-11T10:11:32.365Z,47.70
2019-05-11T10:14:03.010Z,47.90
2019-05-11T10:16:33.645Z,48.60
2019-05-11T10:19:25.100Z,48.20
2019-05-11T10:21:57.853Z,49.30
2019-05-11T10:24:29.816Z,49.20
2019-05-11T10:27:01.165Z,50.10
2019-05-11T10:29:33.878Z,49.10
2019-05-11T10:32:03.798Z,49.80
2019-05-11T10:34:33.925Z,50.50
2019-05-11T10:37:04.663Z,48.60
2019-05-11T10:39:34.830Z,48.50
2019-05-11T10:42:24.268Z,47.80
2019-05-11T10:44:55.388Z,48.40
2019-05-11T10:47:28.017Z,47.90
2019-05-11T10:49:59.455Z,46.70
2019-05-11T10:52:30.205Z,45.50
2019-05-11T10:55:00.409Z,45.50
2019-05-11T10:57:33.360Z,45.60
2019-05-11T11:00:04.755Z,44.70
2019-05-11T11:02:54.317Z,44.60
2019-05-11T11:05:27.774Z,45.00
2019-05-11T11:07:58.808Z,44.60
2019-05-11T11:10:29.382Z,45.10
2019-05-11T11:13:00.542Z,45.50
2019-05-11T11:15:30.823Z,45.60
2019-05-11T11:18:01.418Z,45.60
2019-05-11T11:20:32.764Z,46.80
2019-05-11T11:23:03.078Z,45.60
2019-05-11T11:25:38.912Z,46.10
2019-05-11T11:28:09.358Z,46.60
2019-05-11T11:30:40.928Z,45.70
2019-05-11T11:33:12.994Z,47.00
2019-05-11T11:35:43.409Z,46.00
2019-05-11T11:38:13.547Z,44.50
2019-05-11T11:40:44.140Z,45.00
2019-05-11T11:43:18.104Z,46.90
2019-05-11T11:45:48.639Z,45.10
2019-05-11T11:48:19.141Z,45.10
2019-05-11T11:50:54.036Z,45.50
2019-05-11T11:53:24.985Z,46.60
2019-05-11T11:55:55.906Z,45.70
2019-05-11T11:58:45.492Z,45.80
2019-05-11T12:01:18.981Z,44.60
2019-05-11T12:03:49.350Z,44.30
2019-05-11T12:06:20.878Z,45.20
2019-05-11T12:09:10.653Z,44.60
2019-05-11T12:11:41.016Z,44.50
2019-05-11T12:14:30.528Z,43.40
2019-05-11T12:17:08.024Z,43.50
2019-05-11T12:19:34.348Z,44.20
2019-05-11T12:22:04.752Z,42.70
2019-05-11T12:24:53.817Z,44.70
2019-05-11T12:27:25.350Z,43.80
2019-05-11T12:29:58.211Z,43.10
2019-05-11T12:35:48.860Z,47.10
2019-05-11T12:38:20.013Z,47.80
2019-05-11T12:41:09.293Z,47.90
2019-05-11T12:43:43.554Z,49.10
2019-05-11T12:46:33.298Z,48.60
2019-05-11T12:49:07.997Z,49.20
2019-05-11T12:51:58.990Z,49.60
2019-05-11T12:54:48.932Z,50.00
2019-05-11T12:57:39.499Z,49.40
2019-05-11T13:00:31.513Z,49.40
2019-05-11T13:03:02.461Z,49.40
2019-05-11T13:05:32.922Z,50.80
2019-05-11T13:08:03.169Z,50.70
2019-05-11T13:18:18.560Z,50.70
2019-05-11T13:21:07.888Z,47.60
2019-05-11T13:23:57.684Z,47.10
2019-05-11T13:33:14.012Z,46.90
2019-05-11T13:35:45.228Z,49.80
2019-05-11T13:38:15.303Z,50.90
2019-05-11T13:40:48.782Z,49.50
2019-05-11T13:43:19.569Z,49.50
2019-05-11T13:45:49.840Z,49.70
2019-05-11T13:48:20.688Z,49.20
2019-05-11T13:51:11.584Z,49.40
2019-05-11T13:54:07.751Z,48.60
2019-05-11T14:06:48.214Z,50.30
2019-05-11T14:16:02.124Z,51.90
2019-05-11T14:18:32.704Z,52.50
2019-05-11T14:21:03.079Z,53.40
2019-05-11T14:23:38.827Z,54.30
2019-05-11T14:26:29.972Z,55.40
2019-05-11T14:29:00.370Z,55.00
2019-05-11T14:35:33.598Z,56.70
2019-05-11T14:38:25.627Z,56.30
2019-05-11T14:40:58.489Z,56.30
2019-05-11T14:43:29.319Z,54.90
2019-05-11T14:46:00.077Z,54.90
2019-05-11T14:52:02.724Z,54.60
2019-05-11T14:55:18.406Z,54.60
2019-05-11T15:01:23.429Z,55.10
2019-05-11T15:03:58.879Z,54.40
2019-05-11T15:06:52.278Z,54.00
2019-05-11T15:09:22.712Z,53.70
2019-05-11T15:15:41.562Z,54.80
2019-05-11T15:18:38.603Z,54.40
2019-05-11T15:21:22.216Z,54.40
2019-05-11T15:23:54.321Z,54.90
2019-05-11T15:26:25.252Z,54.60
2019-05-11T15:36:28.598Z,56.20
2019-05-11T15:39:19.425Z,54.70
2019-05-11T15:57:45.071Z,57.90
2019-05-11T16:06:12.536Z,59.40
2019-05-11T16:08:45.523Z,59.80
2019-05-11T16:11:18.162Z,60.80
2019-05-11T16:21:32.782Z,61.20
2019-05-11T16:30:58.449Z,60.70
2019-05-11T16:33:29.246Z,61.20
2019-05-11T16:36:18.410Z,61.40
2019-05-11T16:43:01.801Z,61.60
2019-05-11T16:45:51.633Z,61.60
2019-05-11T16:48:21.771Z,62.10
2019-05-11T16:58:28.122Z,62.20
2019-05-11T17:01:00.846Z,62.80
2019-05-11T17:10:17.923Z,64.70
2019-05-11T17:17:13.650Z,63.90
2019-05-11T17:23:03.546Z,65.50
2019-05-11T17:40:48.286Z,66.70
2019-05-11T17:47:50.543Z,66.20
2019-05-11T17:50:40.845Z,65.40
2019-05-11T17:56:48.332Z,66.30
2019-05-11T18:07:07.972Z,67.20
2019-05-11T18:21:09.279Z,67.20
2019-05-11T18:28:21.797Z,67.20
2019-05-11T18:30:52.418Z,67.40
2019-05-11T18:33:43.749Z,67.40
2019-05-11T18:36:14.875Z,67.30
2019-05-11T18:42:50.953Z,67.00
2019-05-11T18:45:40.748Z,67.40
2019-05-11T18:49:05.053Z,67.50
2019-05-11T18:55:38.047Z,67.50
2019-05-11T19:02:17.995Z,67.80
2019-05-11T19:05:09.647Z,67.50
2019-05-11T19:07:40.526Z,67.20
2019-05-11T19:10:31.467Z,66.50
2019-05-11T19:13:01.937Z,66.50
2019-05-11T19:22:08.921Z,65.40
2019-05-11T19:27:30.045Z,63.90
2019-05-11T19:33:29.205Z,64.20
2019-05-11T19:43:02.307Z,64.70
2019-05-11T19:46:12.198Z,64.40
2019-05-11T19:52:17.696Z,65.40
2019-05-11T20:02:08.510Z,65.50
2019-05-11T20:04:39.517Z,65.10
2019-05-11T20:11:44.707Z,65.50
2019-05-11T20:14:16.323Z,66.10
2019-05-11T20:26:41.561Z,66.80
2019-05-11T20:38:01.434Z,66.80
2019-05-11T20:55:12.967Z,66.40
2019-05-11T21:06:29.336Z,65.50
2019-05-11T21:17:50.774Z,66.10
2019-05-11T21:27:12.170Z,66.70
2019-05-11T21:30:01.530Z,67.10
2019-05-11T21:32:52.022Z,66.90
2019-05-11T21:42:58.022Z,66.00
2019-05-11T21:53:21.077Z,66.80
2019-05-11T21:55:51.891Z,65.90
2019-05-11T21:59:01.381Z,65.60
2019-05-11T22:01:48.359Z,65.90
2019-05-11T22:07:14.262Z,66.50
2019-05-11T22:21:25.183Z,68.20
2019-05-11T22:29:42.622Z,66.40
2019-05-11T22:32:32.092Z,66.00
2019-05-11T22:35:21.474Z,66.40
2019-05-11T22:38:30.267Z,66.70
2019-05-11T22:45:08.561Z,67.50
2019-05-11T22:48:18.305Z,67.80
2019-05-11T22:51:28.813Z,67.90
2019-05-11T22:58:10.089Z,68.70
2019-05-11T23:01:17.937Z,68.10
2019-05-11T23:03:47.544Z,68.10
2019-05-11T23:09:14.077Z,68.60
2019-05-11T23:14:29.881Z,69.20
2019-05-11T23:17:19.922Z,69.50
2019-05-11T23:20:09.642Z,70.00
2019-05-11T23:23:20.290Z,70.30
2019-05-11T23:26:10.851Z,70.60
2019-05-11T23:29:01.369Z,70.40
2019-05-11T23:31:53.144Z,70.40
2019-05-11T23:34:42.393Z,70.90
2019-05-11T23:37:33.669Z,71.30
2019-05-11T23:40:44.480Z,71.60
2019-05-11T23:43:14.906Z,71.40
2019-05-11T23:46:04.408Z,70.60
2019-05-11T23:48:54.453Z,69.20
2019-05-11T23:51:44.861Z,67.70
2019-05-11T23:54:38.284Z,66.50
2019-05-11T23:57:28.873Z,67.00
